LYTVLDDU

Guest
Details From LYTV - Tivat
To LDDU - DUBROVNIK
Flight Number -
Tags generated
Created
Modified
Stats Distance 22 nm / 42 km
Max Altitude 100 ft / 30 m
Waypoints 3
Social Downloads 1
Likes 0
Share VATSIM

Download

Looking for another format? Having issues loading an existing format? Contact us
Advertisement - Login to hide

Notes

Basic altitude profile: - Ascent Rate: 2500ft/min - Ascent Speed: 250kts - Cruise Altitude: 35000ft - Cruise Speed: 420kts - Descent Rate: 1500ft/min - Descent Speed: 250kts Options: - Use NATs: yes - Use PACOTS: yes - Use low airways: yes - Use high airways: yes

Route

LYTV DBK LDDU

ID Type Via Altitude Latitude Longitude Leg Dist Tot Dist Heading (true) Name
O LYTV APT - 0 ft / 0 m 42.40466˚ 18.72329˚ - 0 nm - Tivat
DBK VOR - 100 ft / 30 m 42.55384˚ 18.27743˚ 21 nm 21 nm 295° / 294° DUBROVNIK VOR-DME
O LDDU APT - 0 ft / 0 m 42.56284˚ 18.26450˚ 0 nm 22 nm 313° / 313° DUBROVNIK

Altitude Profile

Advertisement - Login to hide

LYTV

Details ICAO LYTV (TIV)
Name Tivat
Region Serbia and Montenegro
Timezone Europe/Podgorica (UTC+2.0)
Stats Elevation 20 ft / 6 m (AMSL)
Location 42.404657° 18.723295°
Runways 1
Magnetic Variation 4.208° E

METAR

LYTV 201230Z 30004KT 260V040 9999 FEW040 28/12 Q1012 NOSIG

Decode

TAF

TAF LYTV 201100Z 2012/2112 22008KT 9999 FEW040 TX29/2013Z TN15/2103Z

Decode

Departure Runways

ID Width Length Bearing (true) Bearing (mag) Surface Threshold Offset Overrun Length
14 148 ft / 45 m 8,206 ft / 2,501 m 139.03° 134.82° Asphalt 300 ft / 91 m 0 ft / 0 m
32 148 ft / 45 m 8,206 ft / 2,501 m 319.04° 314.83° Asphalt 300 ft / 91 m 0 ft / 0 m

LDDU

Details ICAO LDDU (DBV)
Name DUBROVNIK
Region Croatia
Timezone Europe/Zagreb (UTC+2.0)
Stats Elevation 527 ft / 161 m (AMSL)
Location 42.562840° 18.264499°
Runways 1
Magnetic Variation 4.145° E

METAR

LDDU 201230Z 30009KT 280V350 9999 SCT050 25/09 Q1013 NOSIG

Decode

TAF

TAF LDDU 201125Z 2012/2112 29007KT 9999 FEW040 TX24/2012Z TN20/2104Z PROB30 TEMPO 2013/2017 FEW035CB BECMG 2019/2021 02014KT BECMG 2104/2106 12006KT PROB40 TEMPO 2107/2112 FEW035TCU SCT040

Decode

Destination Runways

ID Width Length Bearing (true) Bearing (mag) Surface Threshold Offset Overrun Length
12 148 ft / 45 m 10,803 ft / 3,293 m 118.30° 114.15° Asphalt 488 ft / 149 m 100 ft / 30 m
30 148 ft / 45 m 10,803 ft / 3,293 m 298.33° 294.18° Asphalt 0 ft / 0 m 100 ft / 30 m

Approach Navaids

Runway Type Ident Frequency Range Bearing (true) Bearing (mag) Slope Elevation
12 Localiser IDU 110.10 MHz 25 nm / 46 km 118.21° 114.06° - 469 ft / 143 m (AMSL)
12 Glidescope IDU 110.10 MHz 25 nm / 46 km 118.21° 114.06° 3.00° 502 ft / 153 m (AMSL)